createdAt,value
2023-04-30T00:00:42.080Z,9.57
2023-04-30T00:03:45.232Z,10.00
2023-04-30T00:06:48.333Z,11.38
2023-04-30T00:09:51.747Z,9.20
2023-04-30T00:12:54.545Z,13.38
2023-04-30T00:15:57.553Z,11.30
2023-04-30T00:19:00.363Z,10.27
2023-04-30T00:22:04.117Z,9.82
2023-04-30T00:25:07.058Z,8.60
2023-04-30T00:28:09.822Z,9.25
2023-04-30T00:31:12.746Z,10.33
2023-04-30T00:34:15.493Z,8.52
2023-04-30T00:37:18.441Z,8.85
2023-04-30T00:40:21.456Z,9.18
2023-04-30T00:43:24.386Z,8.60
2023-04-30T00:46:27.262Z,5.67
2023-04-30T00:49:30.997Z,6.78
2023-04-30T00:52:33.905Z,6.43
2023-04-30T00:55:36.804Z,5.70
2023-04-30T00:58:40.567Z,6.45
2023-04-30T01:01:43.899Z,6.67
2023-04-30T01:04:47.205Z,5.30
2023-04-30T01:07:51.314Z,5.72
2023-04-30T01:11:22.996Z,5.18
2023-04-30T01:14:31.124Z,7.63
2023-04-30T01:17:53.602Z,7.70
2023-04-30T01:21:07.891Z,5.97
2023-04-30T01:24:29.458Z,8.02
2023-04-30T01:27:59.885Z,5.53
2023-04-30T01:31:02.818Z,5.47
2023-04-30T01:34:06.028Z,4.90
2023-04-30T01:37:27.240Z,5.60
2023-04-30T01:40:43.255Z,5.53
2023-04-30T01:43:48.917Z,8.05
2023-04-30T01:47:20.997Z,6.13
2023-04-30T01:50:48.720Z,5.90
2023-04-30T01:53:56.860Z,6.65
2023-04-30T01:57:18.608Z,5.90
2023-04-30T02:00:21.554Z,8.52
2023-04-30T02:03:24.689Z,7.85
2023-04-30T02:06:28.861Z,7.07
2023-04-30T02:09:31.950Z,8.23
2023-04-30T02:12:36.095Z,6.90
2023-04-30T02:15:38.917Z,7.35
2023-04-30T02:18:42.738Z,10.18
2023-04-30T02:21:45.677Z,11.23
2023-04-30T02:24:48.436Z,14.15
2023-04-30T02:27:51.778Z,12.70
2023-04-30T02:30:55.030Z,10.23
2023-04-30T02:33:57.897Z,10.63
2023-04-30T02:37:00.968Z,10.97
2023-04-30T02:40:03.954Z,9.65
2023-04-30T02:43:06.732Z,11.85
2023-04-30T02:46:09.496Z,8.95
2023-04-30T02:49:12.345Z,9.85
2023-04-30T02:52:15.332Z,12.33
2023-04-30T02:55:18.345Z,11.52
2023-04-30T02:58:21.220Z,12.40
2023-04-30T03:01:24.060Z,11.15
2023-04-30T03:04:27.158Z,13.00
2023-04-30T03:07:29.935Z,12.27
2023-04-30T03:10:32.755Z,12.38
2023-04-30T03:13:36.176Z,12.35
2023-04-30T03:16:39.083Z,12.07
2023-04-30T03:19:41.911Z,14.15
2023-04-30T03:22:44.761Z,15.40
2023-04-30T03:25:47.664Z,14.05
2023-04-30T03:28:50.712Z,13.70
2023-04-30T03:31:53.885Z,13.57
2023-04-30T03:34:57.349Z,12.93
2023-04-30T03:38:01.207Z,14.13
2023-04-30T03:41:04.242Z,19.60
2023-04-30T03:44:08.833Z,14.02
2023-04-30T03:47:11.867Z,13.40
2023-04-30T03:50:14.961Z,13.60
2023-04-30T03:53:17.815Z,17.53
2023-04-30T03:56:21.519Z,17.45
2023-04-30T03:59:24.421Z,14.65
2023-04-30T04:02:27.945Z,16.80
2023-04-30T04:05:30.782Z,17.60
2023-04-30T04:08:34.226Z,16.40
2023-04-30T04:11:37.131Z,16.58
2023-04-30T04:14:40.000Z,17.85
2023-04-30T04:17:42.791Z,15.82
2023-04-30T04:20:46.000Z,17.02
2023-04-30T04:23:48.786Z,17.17
2023-04-30T04:26:52.344Z,18.42
2023-04-30T04:29:55.918Z,15.80
2023-04-30T04:32:59.126Z,17.25
2023-04-30T04:36:02.018Z,14.95
2023-04-30T04:39:04.964Z,13.03
2023-04-30T04:42:08.187Z,15.13
2023-04-30T04:45:11.388Z,15.13
2023-04-30T04:48:15.794Z,16.38
2023-04-30T04:51:18.711Z,14.38
2023-04-30T04:54:21.682Z,13.50
2023-04-30T04:57:25.088Z,17.25
2023-04-30T05:00:30.017Z,13.85
2023-04-30T05:03:34.667Z,18.80
2023-04-30T05:06:38.037Z,15.52
2023-04-30T05:09:40.977Z,15.43
2023-04-30T05:12:44.210Z,13.70
2023-04-30T05:15:47.810Z,16.67
2023-04-30T05:18:50.929Z,15.13
2023-04-30T05:21:53.849Z,18.30
2023-04-30T05:24:57.274Z,17.97
2023-04-30T05:27:59.998Z,18.00
2023-04-30T05:31:02.940Z,17.35
2023-04-30T05:34:05.966Z,19.50
2023-04-30T05:37:08.880Z,16.27
2023-04-30T05:40:12.715Z,18.77
2023-04-30T05:43:15.966Z,18.33
2023-04-30T05:46:18.747Z,14.93
2023-04-30T05:49:21.547Z,15.13
2023-04-30T05:52:24.383Z,15.43
2023-04-30T05:55:27.509Z,15.93
2023-04-30T05:58:30.353Z,17.42
2023-04-30T06:01:34.037Z,14.68
2023-04-30T06:04:36.963Z,14.55
2023-04-30T06:07:39.770Z,15.43
2023-04-30T06:10:43.420Z,13.23
2023-04-30T06:13:48.834Z,13.32
2023-04-30T06:16:52.076Z,14.82
2023-04-30T06:19:55.408Z,15.07
2023-04-30T06:22:58.680Z,14.25
2023-04-30T06:26:01.721Z,15.43
2023-04-30T06:29:05.311Z,13.98
2023-04-30T06:32:08.645Z,14.60
2023-04-30T06:35:11.676Z,17.13
2023-04-30T06:38:14.665Z,12.65
2023-04-30T06:41:17.540Z,14.10
2023-04-30T06:44:20.425Z,11.50
2023-04-30T06:47:23.289Z,10.48
2023-04-30T06:50:27.702Z,11.30
2023-04-30T06:53:30.505Z,11.95
2023-04-30T06:56:33.636Z,11.93
2023-04-30T06:59:36.510Z,12.02
2023-04-30T07:02:40.017Z,14.68
2023-04-30T07:05:43.025Z,11.98
2023-04-30T07:08:45.856Z,12.68
2023-04-30T07:11:48.639Z,9.07
2023-04-30T07:14:51.915Z,10.20
2023-04-30T07:17:55.400Z,10.70
2023-04-30T07:20:58.373Z,11.05
2023-04-30T07:24:01.274Z,10.18
2023-04-30T07:27:04.488Z,9.13
2023-04-30T07:30:11.775Z,9.25
2023-04-30T07:33:14.685Z,10.63
2023-04-30T07:36:17.680Z,10.23
2023-04-30T07:39:20.804Z,10.00
2023-04-30T07:42:23.669Z,9.23
2023-04-30T07:45:26.523Z,9.90
2023-04-30T07:48:29.345Z,8.77
2023-04-30T07:51:33.224Z,9.38
2023-04-30T07:54:37.641Z,7.47
2023-04-30T07:57:40.552Z,8.27
2023-04-30T08:00:43.454Z,8.05
2023-04-30T08:03:46.686Z,7.95
2023-04-30T08:06:49.656Z,6.47
2023-04-30T08:09:52.566Z,7.97
2023-04-30T08:12:55.528Z,8.80
2023-04-30T08:15:58.428Z,10.25
2023-04-30T08:19:01.517Z,7.75
2023-04-30T08:22:04.385Z,5.97
2023-04-30T08:25:07.615Z,6.10
2023-04-30T08:28:10.500Z,6.60
2023-04-30T08:31:13.801Z,5.63
2023-04-30T08:34:16.812Z,5.53
2023-04-30T08:37:19.573Z,6.13
2023-04-30T08:40:29.123Z,6.75
2023-04-30T08:43:42.404Z,5.80
2023-04-30T08:46:46.762Z,5.63
2023-04-30T08:49:50.067Z,5.93
2023-04-30T08:52:53.461Z,5.95
2023-04-30T08:55:56.696Z,7.72
2023-04-30T08:59:28.065Z,4.60
2023-04-30T09:02:33.185Z,5.63
2023-04-30T09:05:38.578Z,5.28
2023-04-30T09:08:42.832Z,4.78
2023-04-30T09:11:45.683Z,5.38
2023-04-30T09:15:05.686Z,3.40
2023-04-30T09:18:09.737Z,2.78
2023-04-30T09:21:12.828Z,3.15
2023-04-30T09:24:16.706Z,3.03
2023-04-30T09:27:24.635Z,2.65
2023-04-30T09:30:32.930Z,2.43
2023-04-30T09:33:47.476Z,2.88
2023-04-30T09:36:55.212Z,2.70
2023-04-30T09:39:58.200Z,2.33
2023-04-30T09:43:01.429Z,3.35
2023-04-30T09:46:04.247Z,3.07
2023-04-30T09:49:07.703Z,3.05
2023-04-30T09:52:11.395Z,2.92
2023-04-30T09:55:14.350Z,2.40
2023-04-30T09:58:18.436Z,2.47
2023-04-30T10:01:22.896Z,2.70
2023-04-30T10:04:28.551Z,2.13
2023-04-30T10:07:36.508Z,2.55
2023-04-30T10:10:43.302Z,3.13
2023-04-30T10:13:54.046Z,2.13
2023-04-30T10:17:02.768Z,2.00
2023-04-30T10:20:09.572Z,3.25
2023-04-30T10:23:13.187Z,2.28
2023-04-30T10:26:17.124Z,3.28
2023-04-30T10:29:19.956Z,2.53
2023-04-30T10:32:24.289Z,2.77
2023-04-30T10:35:30.739Z,3.55
2023-04-30T10:38:34.386Z,2.80
2023-04-30T10:41:37.572Z,3.17
2023-04-30T10:44:40.583Z,5.63
2023-04-30T10:47:47.539Z,2.83
2023-04-30T10:50:53.138Z,2.60
2023-04-30T10:53:56.461Z,2.28
2023-04-30T10:57:18.467Z,2.67
2023-04-30T11:00:26.926Z,3.15
2023-04-30T11:03:31.276Z,2.43
2023-04-30T11:06:52.755Z,2.38
2023-04-30T11:09:57.989Z,2.40
2023-04-30T11:13:06.083Z,1.85
2023-04-30T11:16:09.207Z,2.38
2023-04-30T11:19:14.769Z,2.23
2023-04-30T11:22:24.566Z,2.63
2023-04-30T11:25:39.993Z,2.17
2023-04-30T11:28:52.299Z,2.30
2023-04-30T11:31:56.520Z,2.15
2023-04-30T11:35:01.012Z,2.10
2023-04-30T11:38:05.437Z,2.35
2023-04-30T11:41:11.725Z,2.15
2023-04-30T11:44:26.603Z,5.60
2023-04-30T11:47:48.418Z,2.75
2023-04-30T11:50:52.580Z,2.07
2023-04-30T11:53:55.561Z,2.00
2023-04-30T11:57:04.056Z,5.38
2023-04-30T12:00:12.756Z,2.78
2023-04-30T12:03:17.562Z,3.85
2023-04-30T12:06:28.392Z,1.60
2023-04-30T12:09:31.244Z,2.20
2023-04-30T12:12:37.481Z,2.50
2023-04-30T12:15:40.422Z,2.72
2023-04-30T12:18:43.187Z,2.63
2023-04-30T12:21:47.570Z,1.70
2023-04-30T12:24:50.672Z,2.97
2023-04-30T12:27:54.107Z,2.38
2023-04-30T12:30:57.898Z,4.95
2023-04-30T12:34:05.762Z,2.85
2023-04-30T12:37:08.675Z,2.23
2023-04-30T12:40:13.388Z,2.63
2023-04-30T12:43:18.002Z,3.60
2023-04-30T12:46:28.203Z,2.08
2023-04-30T12:49:34.630Z,1.80
2023-04-30T12:52:37.613Z,2.00
2023-04-30T12:55:40.724Z,2.15
2023-04-30T12:58:50.276Z,2.83
2023-04-30T13:01:54.874Z,1.92
2023-04-30T13:04:58.174Z,2.00
2023-04-30T13:08:06.099Z,4.33
2023-04-30T13:11:11.317Z,1.70
2023-04-30T13:14:14.412Z,2.30
2023-04-30T13:17:17.215Z,1.80
2023-04-30T13:20:19.953Z,2.17
2023-04-30T13:23:22.970Z,1.57
2023-04-30T13:26:26.699Z,2.50
2023-04-30T13:29:29.867Z,5.20
2023-04-30T13:32:32.980Z,3.03
2023-04-30T13:35:35.902Z,2.63
2023-04-30T13:38:39.584Z,2.90
2023-04-30T13:41:42.668Z,2.30
2023-04-30T13:44:47.897Z,2.53
2023-04-30T13:47:50.723Z,3.40
2023-04-30T13:50:54.470Z,2.97
2023-04-30T13:53:57.561Z,1.50
2023-04-30T13:57:00.364Z,2.22
2023-04-30T14:00:05.037Z,2.55
2023-04-30T14:03:11.546Z,1.80
2023-04-30T14:06:14.755Z,3.95
2023-04-30T14:09:18.356Z,2.23
2023-04-30T14:12:21.826Z,2.95
2023-04-30T14:15:25.037Z,3.05
2023-04-30T14:18:27.908Z,2.45
2023-04-30T14:21:30.697Z,3.20
2023-04-30T14:24:34.449Z,2.13
2023-04-30T14:27:37.393Z,2.13
2023-04-30T14:30:40.393Z,3.85
2023-04-30T14:33:43.974Z,2.55
2023-04-30T14:36:46.867Z,3.20
2023-04-30T14:39:50.101Z,2.20
2023-04-30T14:42:53.010Z,1.90
2023-04-30T14:45:55.968Z,1.95
2023-04-30T14:48:59.100Z,1.70
2023-04-30T14:52:02.243Z,2.03
2023-04-30T14:55:05.755Z,5.27
2023-04-30T14:58:08.633Z,3.42
2023-04-30T15:01:11.678Z,2.20
2023-04-30T15:04:14.663Z,1.90
2023-04-30T15:07:18.761Z,4.35
2023-04-30T15:10:21.709Z,1.37
2023-04-30T15:13:24.455Z,1.85
2023-04-30T15:16:27.649Z,2.70
2023-04-30T15:19:31.391Z,3.15
2023-04-30T15:22:34.372Z,4.63
2023-04-30T15:25:38.126Z,2.93
2023-04-30T15:28:41.068Z,4.60
2023-04-30T15:31:44.194Z,3.50
2023-04-30T15:34:47.300Z,1.50
2023-04-30T15:37:51.163Z,2.88
2023-04-30T15:40:53.997Z,6.47
2023-04-30T15:43:57.109Z,3.78
2023-04-30T15:47:00.129Z,3.92
2023-04-30T15:50:07.330Z,2.15
2023-04-30T15:53:10.784Z,5.15
2023-04-30T15:56:13.570Z,2.40
2023-04-30T15:59:18.413Z,1.75
2023-04-30T16:02:22.580Z,2.13
2023-04-30T16:05:25.865Z,1.40
2023-04-30T16:08:29.839Z,1.88
2023-04-30T16:11:36.299Z,3.03
2023-04-30T16:14:39.284Z,2.28
2023-04-30T16:17:42.096Z,2.97
2023-04-30T16:20:48.851Z,3.22
2023-04-30T16:23:51.630Z,2.92
2023-04-30T16:26:54.485Z,2.67
2023-04-30T16:29:57.781Z,4.78
2023-04-30T16:33:01.079Z,2.72
2023-04-30T16:36:04.073Z,3.20
2023-04-30T16:39:06.808Z,3.30
2023-04-30T16:42:09.833Z,3.03
2023-04-30T16:45:12.708Z,4.88
2023-04-30T16:48:17.653Z,2.50
2023-04-30T16:51:20.794Z,2.70
2023-04-30T16:54:24.383Z,1.75
2023-04-30T16:57:27.212Z,1.67
2023-04-30T17:00:30.531Z,2.50
2023-04-30T17:03:34.898Z,5.50
2023-04-30T17:06:38.649Z,2.45
2023-04-30T17:09:41.793Z,4.18
2023-04-30T17:12:44.609Z,3.57
2023-04-30T17:15:47.375Z,4.78
2023-04-30T17:18:50.433Z,3.38
2023-04-30T17:21:53.456Z,1.98
2023-04-30T17:24:57.277Z,8.43
2023-04-30T17:28:01.802Z,4.10
2023-04-30T17:31:07.299Z,7.32
2023-04-30T17:34:10.697Z,4.40
2023-04-30T17:37:13.549Z,5.78
2023-04-30T17:40:16.905Z,5.53
2023-04-30T17:43:20.303Z,6.30
2023-04-30T17:46:23.568Z,6.60
2023-04-30T17:49:26.881Z,4.68
2023-04-30T17:52:30.090Z,4.60
2023-04-30T17:55:33.345Z,3.83
2023-04-30T17:58:38.428Z,3.73
2023-04-30T18:01:43.074Z,7.18
2023-04-30T18:04:48.644Z,9.15
2023-04-30T18:07:51.993Z,5.38
2023-04-30T18:10:55.394Z,4.97
2023-04-30T18:13:58.256Z,4.67
2023-04-30T18:17:01.173Z,7.40
2023-04-30T18:20:04.818Z,6.63
2023-04-30T18:23:10.170Z,9.82
2023-04-30T18:26:13.066Z,9.50
2023-04-30T18:29:17.731Z,4.77
2023-04-30T18:32:20.794Z,7.85
2023-04-30T18:35:23.847Z,7.07
2023-04-30T18:38:27.586Z,4.55
2023-04-30T18:41:30.367Z,4.35
2023-04-30T18:44:33.292Z,8.43
2023-04-30T18:47:36.599Z,10.55
2023-04-30T18:50:42.556Z,9.43
2023-04-30T18:53:47.742Z,8.60
2023-04-30T18:56:51.052Z,7.00
2023-04-30T18:59:54.932Z,6.70
2023-04-30T19:02:57.919Z,5.22
2023-04-30T19:06:01.036Z,5.15
2023-04-30T19:09:04.413Z,6.07
2023-04-30T19:12:07.826Z,10.07
2023-04-30T19:15:14.956Z,15.13
2023-04-30T19:18:19.075Z,12.57
2023-04-30T19:21:23.732Z,22.23
2023-04-30T19:24:26.942Z,25.25
2023-04-30T19:27:30.746Z,24.10
2023-04-30T19:30:34.514Z,19.53
2023-04-30T19:33:39.716Z,17.55
2023-04-30T19:36:44.207Z,19.33
2023-04-30T19:39:47.464Z,16.67
2023-04-30T19:42:53.050Z,9.65
2023-04-30T19:45:58.468Z,6.87
2023-04-30T19:49:01.360Z,6.72
2023-04-30T19:52:04.919Z,5.95
2023-04-30T19:55:08.408Z,11.20
2023-04-30T19:58:12.711Z,8.52
2023-04-30T20:01:15.980Z,10.37
2023-04-30T20:04:19.661Z,8.13
2023-04-30T20:07:22.902Z,10.35
2023-04-30T20:10:26.238Z,8.55
2023-04-30T20:13:29.519Z,7.20
2023-04-30T20:16:32.665Z,8.30
2023-04-30T20:19:35.620Z,7.07
2023-04-30T20:22:39.387Z,5.85
2023-04-30T20:25:45.411Z,6.35
2023-04-30T20:28:48.573Z,7.63
2023-04-30T20:31:52.071Z,7.53
2023-04-30T20:34:55.221Z,7.10
2023-04-30T20:37:58.298Z,7.75
2023-04-30T20:41:01.347Z,7.10
2023-04-30T20:44:05.169Z,9.68
2023-04-30T20:47:09.026Z,7.33
2023-04-30T20:50:12.285Z,7.28
2023-04-30T20:53:15.336Z,8.90
2023-04-30T20:56:20.932Z,7.50
2023-04-30T20:59:23.982Z,7.10
2023-04-30T21:02:27.382Z,8.13
2023-04-30T21:05:30.652Z,6.93
2023-04-30T21:08:33.574Z,7.07
2023-04-30T21:11:36.327Z,5.53
2023-04-30T21:14:39.501Z,6.05
2023-04-30T21:17:42.321Z,6.43
2023-04-30T21:20:45.068Z,7.35
2023-04-30T21:23:48.406Z,6.65
2023-04-30T21:26:51.385Z,6.93
2023-04-30T21:29:54.342Z,11.45
2023-04-30T21:32:59.107Z,6.27
2023-04-30T21:36:02.193Z,10.07
2023-04-30T21:39:04.983Z,6.70
2023-04-30T21:42:08.137Z,8.15
2023-04-30T21:45:11.059Z,5.70
2023-04-30T21:48:14.132Z,7.47
2023-04-30T21:51:17.673Z,6.25
2023-04-30T21:54:20.747Z,8.00
2023-04-30T21:57:24.249Z,6.22
2023-04-30T22:00:33.980Z,7.25
2023-04-30T22:03:37.256Z,7.83
2023-04-30T22:06:40.437Z,8.05
2023-04-30T22:09:44.545Z,7.88
2023-04-30T22:12:48.139Z,7.80
2023-04-30T22:15:51.692Z,6.43
2023-04-30T22:18:56.204Z,6.90
2023-04-30T22:22:01.423Z,12.52
2023-04-30T22:25:04.720Z,6.03
2023-04-30T22:28:07.542Z,9.02
2023-04-30T22:31:10.553Z,6.78
2023-04-30T22:34:15.649Z,6.20
2023-04-30T22:37:18.372Z,8.55
2023-04-30T22:40:22.160Z,6.10
2023-04-30T22:43:25.139Z,6.57
2023-04-30T22:46:27.988Z,6.38
2023-04-30T22:49:32.215Z,7.27
2023-04-30T22:52:36.213Z,7.18
2023-04-30T22:55:39.013Z,7.05
2023-04-30T22:58:41.846Z,6.35
2023-04-30T23:01:45.224Z,7.15
2023-04-30T23:04:48.585Z,6.37
2023-04-30T23:07:51.478Z,6.57
2023-04-30T23:10:55.809Z,6.72
2023-04-30T23:13:58.720Z,8.82
2023-04-30T23:17:02.028Z,6.85
2023-04-30T23:20:05.247Z,8.13
2023-04-30T23:23:07.928Z,7.93
2023-04-30T23:26:10.808Z,6.82
2023-04-30T23:29:14.827Z,15.07
2023-04-30T23:32:17.568Z,10.05
2023-04-30T23:35:20.547Z,9.53
2023-04-30T23:38:23.309Z,9.50
2023-04-30T23:41:26.299Z,6.65
2023-04-30T23:44:32.232Z,8.23
2023-04-30T23:47:36.798Z,7.07
2023-04-30T23:50:39.646Z,7.83
2023-04-30T23:53:42.784Z,14.55
2023-04-30T23:56:46.489Z,8.43
2023-04-30T23:59:49.224Z,7.63
